Buttonwillow, California
Current Conditions -  °F | °C
As of 11:54 PM on Thursday 18 Dec 2014 (Local Time) from KBFL Reporting Station
Clear Clear  
Wind Chill: 48°   Ceiling: Unl
Heat Index: 48°   Visibility: 10mi
Dew Point: 42°   Wind: 0mph
Humidity: 80%   Direction: NA
Pressure: 30.22"   Gusts: NA
Location:  35.4°N, 119.47°W
Report Text: KBFL 190754Z AUTO 00000KT 10SM CLR 09/06 A3022 RMK AO2 SLP230 T00890056 401720067
Loading
Personal Weather Stations






























Interactive Weather Map New forecast layout! Learn more

10-Day Weather Forecast

Advertisements
Track Severe Weather on mobile